Time;durP1;ratioP1;P1;durP2;ratioP2;P2;SDS_P1;SDS_P2;PMS_P1;PMS_P2;Temp;Humidity;BMP_temperature;BMP_pressure;BME280_temperature;BME280_humidity;BME280_pressure;Samples;Min_cycle;Max_cycle;Signal;HPM_P1;HPM_P2
2022/11/16 00:02:24;;;;;;;5.57;4.30;;;13.60;99.90;;;;;;5004173;28;20166;-79
2022/11/16 00:08:21;;;;;;;4.90;4.17;;;13.60;99.90;;;;;;5017631;28;20193;-77
2022/11/16 00:10:56;;;;;;;5.63;3.93;;;13.60;99.90;;;;;;5027465;28;20270;-78
2022/11/16 00:13:45;;;;;;;6.57;4.57;;;13.70;99.90;;;;;;5000834;28;20230;-78
2022/11/16 00:23:10;;;;;;;7.37;4.93;;;13.80;99.90;;;;;;5010722;28;20174;-78
2022/11/16 00:29:05;;;;;;;6.77;6.07;;;13.90;99.90;;;;;;5001438;28;20209;-79
2022/11/16 00:31:50;;;;;;;7.00;5.93;;;14.10;99.90;;;;;;5003176;28;20147;-78
2022/11/16 00:34:27;;;;;;;7.17;6.47;;;14.10;99.90;;;;;;5009048;28;20304;-79
2022/11/16 00:37:37;;;;;;;7.97;6.60;;;14.10;99.90;;;;;;5006827;28;20194;-78
2022/11/16 00:40:58;;;;;;;8.13;6.30;;;14.00;99.90;;;;;;4999956;28;20557;-78
2022/11/16 00:43:44;;;;;;;6.27;5.13;;;13.70;99.90;;;;;;4999476;28;20261;-78
2022/11/16 00:49:31;;;;;;;5.17;3.60;;;13.60;99.90;;;;;;5000951;28;20176;-77
2022/11/16 00:55:19;;;;;;;5.40;3.37;;;13.40;99.90;;;;;;5011600;28;20186;-78
2022/11/16 01:01:18;;;;;;;6.90;3.50;;;13.30;99.90;;;;;;5006776;28;20586;-78
2022/11/16 01:10:32;;;;;;;4.33;3.23;;;13.10;99.90;;;;;;5010328;28;20172;-77
2022/11/16 01:13:19;;;;;;;4.97;3.50;;;13.10;99.90;;;;;;5020891;28;20210;-77
2022/11/16 01:15:48;;;;;;;5.30;3.03;;;13.00;99.90;;;;;;5020742;28;20173;-78
2022/11/16 01:18:14;;;;;;;5.13;2.97;;;13.00;99.90;;;;;;5021210;28;20165;-77
2022/11/16 01:20:45;;;;;;;4.53;2.90;;;13.00;99.90;;;;;;5021123;28;20168;-77
2022/11/16 01:23:48;;;;;;;4.87;2.80;;;13.00;99.90;;;;;;5021019;28;20244;-76
2022/11/16 01:26:39;;;;;;;5.73;3.07;;;13.00;99.90;;;;;;5021309;28;20174;-77
2022/11/16 01:29:56;;;;;;;5.00;2.77;;;13.10;99.90;;;;;;5019781;28;20172;-76
2022/11/16 01:32:24;;;;;;;5.27;3.07;;;13.00;99.90;;;;;;5019686;28;20171;-76
2022/11/16 01:35:08;;;;;;;4.40;2.97;;;13.00;99.90;;;;;;5020166;28;20178;-77
2022/11/16 01:37:37;;;;;;;4.47;2.60;;;12.90;99.90;;;;;;5019846;28;20190;-77
2022/11/16 01:41:03;;;;;;;4.63;2.40;;;12.90;99.90;;;;;;5020822;28;20217;-78
2022/11/16 01:44:00;;;;;;;4.97;2.30;;;12.90;99.90;;;;;;5020713;28;20181;-77
2022/11/16 01:46:42;;;;;;;5.10;2.33;;;13.00;99.90;;;;;;5020797;28;20154;-76
2022/11/16 01:52:40;;;;;;;6.53;2.43;;;13.00;99.90;;;;;;5020866;28;20172;-77
2022/11/16 01:55:39;;;;;;;3.20;2.10;;;12.90;99.90;;;;;;5020719;28;20157;-79
2022/11/16 01:58:36;;;;;;;4.17;2.00;;;12.80;99.90;;;;;;5020898;28;20169;-77
2022/11/16 02:01:06;;;;;;;5.53;2.40;;;12.80;99.90;;;;;;5020783;28;20153;-78
2022/11/16 02:03:36;;;;;;;5.00;2.37;;;12.80;99.90;;;;;;5020158;28;20206;-77
2022/11/16 02:09:54;;;;;;;5.00;2.57;;;12.80;99.90;;;;;;4999236;28;20262;-77
2022/11/16 02:15:53;;;;;;;5.60;2.30;;;12.80;99.90;;;;;;4999373;28;20566;-76
2022/11/16 02:28:48;;;;;;;5.43;2.47;;;12.90;99.90;;;;;;5019273;28;20226;-76
2022/11/16 02:31:22;;;;;;;5.87;2.77;;;12.90;99.90;;;;;;5018735;28;20175;-77
2022/11/16 02:33:51;;;;;;;7.43;2.83;;;12.70;99.90;;;;;;5000996;28;20161;-78
2022/11/16 02:40:00;;;;;;;6.40;3.23;;;12.60;99.90;;;;;;5019133;28;20265;-78
2022/11/16 02:42:31;;;;;;;5.37;2.60;;;12.60;99.90;;;;;;5012442;28;20197;-78
2022/11/16 02:45:01;;;;;;;5.70;3.13;;;12.50;99.90;;;;;;4996119;28;20217;-76
2022/11/16 02:47:58;;;;;;;5.80;3.17;;;12.50;99.90;;;;;;5003826;28;20213;-77
2022/11/16 02:50:27;;;;;;;6.67;2.87;;;12.50;99.90;;;;;;5018737;28;20218;-77
2022/11/16 02:53:40;;;;;;;4.87;3.13;;;12.50;99.90;;;;;;5008977;28;20169;-76
2022/11/16 02:59:56;;;;;;;6.20;2.90;;;12.40;99.90;;;;;;5019211;28;20152;-76
2022/11/16 03:12:55;;;;;;;4.87;2.40;;;12.30;99.90;;;;;;5012950;28;20209;-77
2022/11/16 03:15:52;;;;;;;5.43;2.93;;;12.30;99.90;;;;;;5001013;28;20633;-77
2022/11/16 03:18:23;;;;;;;5.80;2.60;;;12.30;99.90;;;;;;5001541;28;20231;-77
2022/11/16 03:24:11;;;;;;;8.27;2.97;;;12.20;99.90;;;;;;5006758;28;20223;-77
2022/11/16 03:26:51;;;;;;;7.00;2.40;;;12.20;99.90;;;;;;4999818;28;20311;-76
2022/11/16 03:36:44;;;;;;;3.53;2.40;;;12.00;99.90;;;;;;4997580;28;20655;-78
2022/11/16 03:39:55;;;;;;;5.23;2.77;;;12.00;99.90;;;;;;4998283;28;20167;-77
2022/11/16 03:45:46;;;;;;;4.80;2.30;;;11.90;99.90;;;;;;4996244;28;20207;-78
2022/11/16 03:48:41;;;;;;;10.73;3.30;;;11.90;99.90;;;;;;5008810;28;20163;-76
2022/11/16 03:58:23;;;;;;;5.77;2.80;;;11.70;99.90;;;;;;5018828;28;20186;-77
2022/11/16 04:01:11;;;;;;;4.43;2.30;;;11.60;99.90;;;;;;5018801;28;20152;-76
2022/11/16 04:30:12;;;;;;;6.90;3.23;;;11.20;99.90;;;;;;5004086;28;20242;-78
2022/11/16 04:39:38;;;;;;;9.70;4.57;;;11.20;99.90;;;;;;5022108;28;20171;-79
2022/11/16 04:42:24;;;;;;;13.93;4.73;;;11.00;99.90;;;;;;5021754;28;20178;-77
2022/11/16 04:47:37;;;;;;;8.93;3.63;;;11.00;99.90;;;;;;5012803;28;20382;-77
2022/11/16 04:50:05;;;;;;;9.07;4.80;;;11.00;99.90;;;;;;5001271;28;20163;-77
2022/11/16 04:52:32;;;;;;;10.73;4.37;;;11.00;99.90;;;;;;5007418;28;20135;-76
2022/11/16 04:55:02;;;;;;;8.40;4.40;;;11.00;99.90;;;;;;5018815;28;20195;-76
2022/11/16 04:57:51;;;;;;;10.30;4.23;;;11.10;99.90;;;;;;5020083;28;20171;-77
2022/11/16 05:00:28;;;;;;;8.00;3.90;;;11.10;99.90;;;;;;5020942;28;20152;-77
2022/11/16 05:13:01;;;;;;;7.97;3.00;;;10.80;99.90;;;;;;5020419;28;20170;-76
2022/11/16 05:15:39;;;;;;;8.30;2.63;;;10.70;99.90;;;;;;5019590;28;20147;-78
2022/11/16 05:18:38;;;;;;;8.77;2.67;;;10.70;99.90;;;;;;5020307;28;20183;-78
2022/11/16 05:21:35;;;;;;;11.17;2.83;;;10.60;99.90;;;;;;5020470;28;20155;-78
2022/11/16 05:24:46;;;;;;;8.80;3.30;;;10.60;99.90;;;;;;5018491;28;20242;-78
2022/11/16 05:27:45;;;;;;;11.07;3.10;;;10.60;99.90;;;;;;5017343;28;20347;-78
2022/11/16 05:37:29;;;;;;;9.03;2.90;;;10.50;99.90;;;;;;5020264;28;20158;-78
2022/11/16 05:39:55;;;;;;;8.73;2.40;;;10.50;99.90;;;;;;5020317;28;20179;-77
2022/11/16 05:42:48;;;;;;;9.13;2.60;;;10.40;99.90;;;;;;5211545;22;20248;-77
2022/11/16 05:55:29;;;;;;;9.80;3.00;;;10.50;99.90;;;;;;5039119;28;20163;-77
2022/11/16 05:58:18;;;;;;;11.73;2.80;;;10.50;99.90;;;;;;5038968;28;20197;-78
2022/11/16 06:04:11;;;;;;;8.13;2.77;;;10.50;99.90;;;;;;5039689;28;20232;-78
2022/11/16 06:06:41;;;;;;;9.87;3.13;;;10.50;99.90;;;;;;5038649;28;20164;-77
2022/11/16 06:09:52;;;;;;;9.33;2.83;;;10.40;99.90;;;;;;5038401;28;20155;-77
2022/11/16 06:19:31;;;;;;;9.47;3.43;;;10.40;99.90;;;;;;5037864;28;20169;-77
2022/11/16 06:22:06;;;;;;;9.07;3.07;;;10.40;99.90;;;;;;5037298;28;20172;-78
2022/11/16 06:27:58;;;;;;;16.17;3.13;;;10.40;99.90;;;;;;5037541;28;20195;-77
2022/11/16 06:31:11;;;;;;;9.93;2.70;;;10.30;99.90;;;;;;5038223;28;20170;-77
2022/11/16 06:37:09;;;;;;;12.87;3.57;;;10.20;99.90;;;;;;5038258;28;20161;-80
2022/11/16 06:43:26;;;;;;;12.57;3.20;;;10.20;99.90;;;;;;5037575;28;20233;-81
2022/11/16 06:46:26;;;;;;;10.60;2.70;;;10.20;99.90;;;;;;5020803;28;20182;-80
2022/11/16 06:52:14;;;;;;;12.17;3.27;;;10.10;99.90;;;;;;5031175;28;20201;-96
2022/11/16 06:54:41;;;;;;;8.73;3.10;;;10.10;99.90;;;;;;5035770;28;20175;-92
2022/11/16 06:57:09;;;;;;;12.60;3.23;;;10.10;99.90;;;;;;5036986;28;20188;-91
2022/11/16 06:59:36;;;;;;;9.73;3.27;;;10.10;99.90;;;;;;5021642;28;20195;-79
2022/11/16 07:02:43;;;;;;;9.50;3.37;;;10.10;99.90;;;;;;5021542;28;20181;-81
2022/11/16 07:05:21;;;;;;;10.47;2.87;;;10.10;99.90;;;;;;5036765;28;20219;-82
2022/11/16 07:08:11;;;;;;;8.53;3.43;;;10.20;99.90;;;;;;5020709;28;20188;-85
2022/11/16 07:10:40;;;;;;;10.63;3.30;;;10.10;99.90;;;;;;5037509;28;20211;-79
2022/11/16 07:13:11;;;;;;;10.00;3.07;;;10.10;99.90;;;;;;5020237;28;20221;-80
2022/11/16 07:16:20;;;;;;;9.07;3.30;;;10.10;99.90;;;;;;5047087;28;20177;-85
2022/11/16 07:19:35;;;;;;;12.07;2.93;;;10.20;99.90;;;;;;5049121;28;20212;-96
2022/11/16 07:22:05;;;;;;;8.23;2.90;;;10.20;99.90;;;;;;5047084;28;20241;-89
2022/11/16 07:24:32;;;;;;;9.37;3.13;;;10.20;99.90;;;;;;5045034;28;20206;-92
2022/11/16 07:26:59;;;;;;;11.00;2.80;;;10.20;99.90;;;;;;5041056;28;20189;-88
2022/11/16 07:29:27;;;;;;;10.83;3.83;;;10.20;99.90;;;;;;5040977;28;20174;-86
2022/11/16 07:31:53;;;;;;;9.77;2.90;;;10.30;99.90;;;;;;5037363;28;20205;-94
2022/11/16 07:34:20;;;;;;;11.07;2.83;;;10.20;99.90;;;;;;5025173;28;20178;-94
2022/11/16 07:36:47;;;;;;;9.70;2.83;;;10.20;99.90;;;;;;5025355;28;20155;-87
2022/11/16 07:39:12;;;;;;;12.70;3.13;;;10.10;99.90;;;;;;5018267;28;20202;-86
2022/11/16 07:41:38;;;;;;;10.03;3.20;;;10.10;99.90;;;;;;5020685;28;20685;-92
2022/11/16 07:44:10;;;;;;;8.30;2.70;;;10.30;99.90;;;;;;5025305;28;20202;-91
2022/11/16 07:46:36;;;;;;;10.80;2.80;;;10.30;99.90;;;;;;5019307;28;20717;-85
2022/11/16 07:49:04;;;;;;;9.73;3.00;;;10.70;99.90;;;;;;5025478;28;20226;-85
2022/11/16 07:51:40;;;;;;;11.00;2.63;;;10.90;99.90;;;;;;5038276;28;20186;-89
2022/11/16 07:54:11;;;;;;;8.23;2.80;;;10.80;99.90;;;;;;5041474;28;20154;-95
2022/11/16 07:56:39;;;;;;;7.63;2.90;;;10.70;99.90;;;;;;5037855;28;20248;-89
2022/11/16 07:59:06;;;;;;;7.03;2.83;;;10.70;99.90;;;;;;5028607;28;20190;-91
2022/11/16 08:01:35;;;;;;;8.13;2.57;;;10.70;99.90;;;;;;5036811;28;20185;-83
2022/11/16 08:04:01;;;;;;;8.80;2.50;;;10.70;99.90;;;;;;5028909;28;20222;-79
2022/11/16 08:06:32;;;;;;;7.57;2.20;;;10.70;99.90;;;;;;5025448;28;20193;-83
2022/11/16 08:09:05;;;;;;;6.90;2.40;;;10.80;99.90;;;;;;5036103;28;20170;-87
2022/11/16 08:11:33;;;;;;;8.60;3.13;;;10.70;99.90;;;;;;5033967;28;20163;-96
2022/11/16 08:14:55;;;;;;;8.73;2.80;;;10.70;99.90;;;;;;5035130;28;20174;-93
2022/11/16 08:17:21;;;;;;;7.93;2.70;;;10.80;99.90;;;;;;5038404;28;20163;-80
2022/11/16 08:19:53;;;;;;;9.57;2.90;;;10.80;99.90;;;;;;5023089;28;20147;-82
2022/11/16 08:22:43;;;;;;;6.33;2.50;;;10.90;99.90;;;;;;5041468;28;20176;-81
2022/11/16 08:25:59;;;;;;;5.57;2.37;;;11.00;99.90;;;;;;5019405;28;20210;-79
2022/11/16 08:29:23;;;;;;;8.60;3.00;;;11.10;99.90;;;;;;5026322;28;20270;-78
2022/11/16 08:31:50;;;;;;;7.03;2.83;;;11.00;99.90;;;;;;5040508;28;20166;-78
2022/11/16 08:34:15;;;;;;;12.03;2.97;;;11.10;99.90;;;;;;5037436;28;20194;-79
2022/11/16 08:36:41;;;;;;;8.00;2.30;;;11.00;99.90;;;;;;5040655;28;20168;-81
2022/11/16 08:39:29;;;;;;;7.57;2.40;;;11.00;99.90;;;;;;5039023;28;20202;-77
2022/11/16 08:41:59;;;;;;;7.27;2.20;;;11.10;99.90;;;;;;5040889;28;20193;-79
2022/11/16 08:44:33;;;;;;;8.77;2.40;;;11.20;99.50;;;;;;5041017;28;20211;-79
2022/11/16 08:47:25;;;;;;;10.23;2.47;;;11.40;99.60;;;;;;5040288;28;20167;-78
2022/11/16 08:49:51;;;;;;;7.07;2.07;;;11.30;99.30;;;;;;5039443;28;20233;-86
2022/11/16 08:52:36;;;;;;;10.07;3.13;;;11.30;99.40;;;;;;5036544;28;20179;-85
2022/11/16 08:55:21;;;;;;;8.37;2.30;;;11.30;99.10;;;;;;5040124;28;20189;-89
2022/11/16 08:58:05;;;;;;;7.33;2.30;;;11.40;99.20;;;;;;5035693;28;20187;-86
2022/11/16 09:00:37;;;;;;;8.57;2.27;;;11.50;98.90;;;;;;5027332;28;20186;-90
2022/11/16 09:03:33;;;;;;;8.13;2.40;;;11.60;99.90;;;;;;4998335;28;20191;-91
2022/11/16 09:06:09;;;;;;;6.17;2.07;;;11.90;98.40;;;;;;5025192;28;20247;-87
2022/11/16 09:08:38;;;;;;;6.80;1.87;;;11.70;95.00;;;;;;5007484;28;20245;-86
2022/11/16 09:11:18;;;;;;;5.57;2.17;;;11.60;96.40;;;;;;5026211;28;20170;-86
2022/11/16 09:13:54;;;;;;;9.10;2.47;;;11.50;97.00;;;;;;5030095;28;20188;-87
2022/11/16 09:16:23;;;;;;;8.03;2.10;;;11.50;97.80;;;;;;5026966;28;20203;-86
2022/11/16 09:18:51;;;;;;;7.77;2.43;;;11.50;98.20;;;;;;5029983;28;20155;-86
2022/11/16 09:21:26;;;;;;;9.53;2.30;;;11.60;98.30;;;;;;5015923;28;20205;-84
2022/11/16 09:23:53;;;;;;;9.03;2.13;;;11.50;97.80;;;;;;5018035;28;20615;-86
2022/11/16 09:26:20;;;;;;;9.13;2.57;;;11.60;98.10;;;;;;5006849;28;20539;-86
2022/11/16 09:28:52;;;;;;;7.97;2.20;;;11.60;98.20;;;;;;5024301;28;20192;-87
2022/11/16 09:31:21;;;;;;;6.83;2.10;;;11.60;97.80;;;;;;5028232;28;20200;-87
2022/11/16 09:33:50;;;;;;;10.73;2.80;;;11.50;97.90;;;;;;5027064;28;20174;-85
2022/11/16 09:36:58;;;;;;;8.03;2.67;;;11.60;98.10;;;;;;5029478;28;20250;-82
2022/11/16 09:39:42;;;;;;;9.77;2.77;;;11.60;98.40;;;;;;5039534;28;20226;-86
2022/11/16 09:42:39;;;;;;;7.17;2.63;;;11.60;98.50;;;;;;5039142;28;20250;-87
2022/11/16 09:50:42;;;;;;;10.60;2.40;;;11.60;98.90;;;;;;5056899;28;20206;-87
2022/11/16 09:53:36;;;;;;;8.17;2.40;;;11.50;98.60;;;;;;5042119;28;20249;-88
2022/11/16 09:56:22;;;;;;;9.37;3.03;;;11.50;99.10;;;;;;5045176;22;20249;-84
2022/11/16 09:59:03;;;;;;;7.63;2.53;;;11.50;99.30;;;;;;4989618;28;20187;-86
2022/11/16 10:01:53;;;;;;;11.63;3.43;;;11.60;99.90;;;;;;4970414;28;20180;-85
2022/11/16 10:04:29;;;;;;;11.50;3.20;;;11.60;99.40;;;;;;4989806;28;20227;-86
2022/11/16 10:07:16;;;;;;;10.83;2.87;;;11.60;99.40;;;;;;5004776;28;20183;-84
2022/11/16 10:09:43;;;;;;;11.43;2.53;;;11.60;99.20;;;;;;5001851;28;20179;-82
2022/11/16 10:12:47;;;;;;;10.20;2.50;;;12.10;99.90;;;;;;4983966;28;20534;-83
2022/11/16 10:15:24;;;;;;;12.63;3.17;;;12.40;99.80;;;;;;4999903;28;20724;-79
2022/11/16 10:18:15;;;;;;;11.10;2.30;;;12.50;94.90;;;;;;4984671;28;20270;-84
2022/11/16 10:20:58;;;;;;;9.87;2.77;;;12.40;92.50;;;;;;4989084;28;20178;-81
2022/11/16 10:24:08;;;;;;;9.63;2.37;;;12.50;92.60;;;;;;4983767;28;20189;-82
2022/11/16 10:27:18;;;;;;;12.27;2.97;;;12.40;92.30;;;;;;5007386;28;20180;-82
2022/11/16 10:30:12;;;;;;;7.83;2.47;;;12.50;90.30;;;;;;5006512;28;20179;-81
2022/11/16 10:33:00;;;;;;;8.60;2.70;;;12.60;86.50;;;;;;5003264;28;20177;-82
2022/11/16 10:35:43;;;;;;;9.00;2.50;;;12.70;83.10;;;;;;4968379;28;20187;-82
2022/11/16 10:38:19;;;;;;;7.87;2.50;;;12.70;81.00;;;;;;5000024;28;20670;-82
2022/11/16 10:40:52;;;;;;;9.03;2.23;;;12.80;81.40;;;;;;4982750;28;20197;-83
2022/11/16 10:43:39;;;;;;;8.33;2.00;;;12.70;80.90;;;;;;4981025;28;20194;-83
2022/11/16 10:46:38;;;;;;;10.33;3.00;;;13.00;80.60;;;;;;4983482;28;20203;-82
2022/11/16 10:49:39;;;;;;;8.23;2.00;;;12.90;79.00;;;;;;4971765;28;20215;-82
2022/11/16 10:52:05;;;;;;;10.13;2.43;;;13.00;77.50;;;;;;4982054;28;20159;-81
2022/11/16 10:55:16;;;;;;;8.30;2.17;;;13.20;75.50;;;;;;4971218;28;20178;-82
2022/11/16 10:58:05;;;;;;;8.63;2.27;;;13.20;73.70;;;;;;4979961;28;20191;-85
2022/11/16 11:00:47;;;;;;;6.37;2.30;;;13.30;69.50;;;;;;4969693;28;20191;-89
2022/11/16 11:03:13;;;;;;;11.50;2.67;;;13.30;69.80;;;;;;4987315;28;20182;-89
2022/11/16 11:05:52;;;;;;;8.87;2.47;;;13.40;67.10;;;;;;4998214;28;20291;-86
2022/11/16 11:20:00;;;;;;;8.47;2.30;;;13.50;61.60;;;;;;4058891;23;20238;-87
2022/11/16 11:23:01;;;;;;;7.23;1.97;;;13.50;63.70;;;;;;5009354;28;20217;-87
2022/11/16 11:25:47;;;;;;;8.07;2.23;;;13.30;61.70;;;;;;4928446;28;20220;-85
2022/11/16 11:28:45;;;;;;;7.37;2.40;;;13.10;64.90;;;;;;4956217;28;20240;-90
2022/11/16 11:31:43;;;;;;;11.50;2.43;;;13.10;66.00;;;;;;4936112;29;20247;-88
2022/11/16 11:34:34;;;;;;;8.43;2.43;;;13.20;67.10;;;;;;4948084;29;20603;-88
2022/11/16 11:37:42;;;;;;;11.10;2.20;;;13.30;64.10;;;;;;4956947;28;20164;-89
2022/11/16 11:40:51;;;;;;;6.60;2.00;;;13.40;62.10;;;;;;4940280;28;20173;-87
2022/11/16 11:44:02;;;;;;;5.97;2.10;;;13.50;62.50;;;;;;4940888;28;20180;-87
2022/11/16 11:47:05;;;;;;;6.20;2.00;;;13.50;60.60;;;;;;4943609;28;20244;-87
2022/11/16 11:49:48;;;;;;;9.00;1.93;;;13.60;59.10;;;;;;4940973;28;20214;-87
2022/11/16 11:52:37;;;;;;;9.00;2.50;;;13.70;60.80;;;;;;4939030;28;20188;-89
2022/11/16 11:55:24;;;;;;;7.37;2.23;;;13.80;59.50;;;;;;4941156;28;20194;-87
2022/11/16 11:58:03;;;;;;;13.17;2.40;;;13.80;56.00;;;;;;4942170;28;20176;-90
2022/11/16 12:01:15;;;;;;;7.83;2.13;;;13.90;55.20;;;;;;4943317;28;20244;-87
2022/11/16 12:04:07;;;;;;;8.53;2.37;;;13.90;56.70;;;;;;4919693;29;20194;-86
2022/11/16 12:07:18;;;;;;;7.17;2.00;;;13.80;57.00;;;;;;4935345;29;20181;-88
2022/11/16 12:09:45;;;;;;;8.93;2.30;;;13.50;60.80;;;;;;4943275;29;20187;-87
2022/11/16 12:12:58;;;;;;;8.77;2.77;;;13.30;65.00;;;;;;4927726;28;20189;-84
2022/11/16 12:15:56;;;;;;;9.33;2.10;;;13.30;69.20;;;;;;4940527;28;20178;-86
2022/11/16 12:19:03;;;;;;;10.77;2.27;;;13.20;69.60;;;;;;4944795;28;20203;-88
2022/11/16 12:21:52;;;;;;;13.03;3.00;;;13.30;70.90;;;;;;4978365;28;20181;-89
2022/11/16 12:24:55;;;;;;;7.57;2.07;;;13.20;73.10;;;;;;5018470;28;20205;-87
2022/11/16 12:27:33;;;;;;;8.17;2.10;;;13.20;73.30;;;;;;5018982;28;20176;-89
2022/11/16 12:30:33;;;;;;;7.10;2.07;;;13.30;74.70;;;;;;5019233;28;20192;-83
2022/11/16 12:33:39;;;;;;;7.93;1.90;;;13.30;73.40;;;;;;4999833;28;20188;-85
2022/11/16 12:36:26;;;;;;;11.90;2.57;;;13.20;79.20;;;;;;5021133;28;20199;-87
2022/11/16 12:39:23;;;;;;;6.13;2.40;;;13.00;86.80;;;;;;5048609;23;20284;-91
2022/11/16 12:42:18;;;;;;;9.13;2.87;;;13.00;90.90;;;;;;4997912;28;20257;-87
2022/11/16 12:45:22;;;;;;;6.50;2.53;;;13.00;94.00;;;;;;4983519;28;20247;-86
2022/11/16 12:48:25;;;;;;;4.33;2.17;;;13.00;94.90;;;;;;4984818;28;20219;-87
2022/11/16 12:51:36;;;;;;;6.67;2.23;;;13.10;95.30;;;;;;4998378;28;20702;-83
2022/11/16 12:54:29;;;;;;;6.50;2.10;;;13.20;94.70;;;;;;4997416;28;20161;-83
2022/11/16 12:57:25;;;;;;;7.23;2.03;;;13.40;94.30;;;;;;4973349;28;20166;-88
2022/11/16 13:00:35;;;;;;;11.57;2.77;;;13.50;93.10;;;;;;4988247;28;20228;-90
2022/11/16 13:03:30;;;;;;;6.73;2.40;;;13.50;92.30;;;;;;4987362;28;20271;-87
2022/11/16 13:06:08;;;;;;;7.77;2.53;;;13.60;91.70;;;;;;4963823;28;20203;-88
2022/11/16 13:09:11;;;;;;;12.53;2.20;;;13.60;91.40;;;;;;5000608;28;20201;-83
2022/11/16 13:12:15;;;;;;;6.63;2.17;;;13.50;90.70;;;;;;5014797;28;20147;-83
2022/11/16 13:20:34;;;;;;;8.73;3.00;;;13.50;91.70;;;;;;5053923;28;20231;-82
2022/11/16 13:23:35;;;;;;;7.87;3.13;;;13.50;92.50;;;;;;5030054;28;20172;-88
2022/11/16 13:26:59;;;;;;;7.13;2.70;;;13.60;92.40;;;;;;5042649;28;20241;-86
2022/11/16 13:29:43;;;;;;;10.97;2.90;;;13.70;91.90;;;;;;4979244;28;20183;-86
2022/11/16 13:32:39;;;;;;;8.10;2.40;;;13.60;91.40;;;;;;4988070;28;20183;-84
2022/11/16 13:35:37;;;;;;;6.70;2.17;;;13.50;91.80;;;;;;5042283;28;20187;-86
2022/11/16 13:38:14;;;;;;;7.27;2.40;;;13.50;91.70;;;;;;5036905;28;20192;-88
2022/11/16 13:40:55;;;;;;;10.47;2.30;;;13.50;92.70;;;;;;5019619;28;20174;-87
2022/11/16 13:43:30;;;;;;;6.67;2.43;;;13.50;92.50;;;;;;5040531;28;20196;-86
2022/11/16 13:46:01;;;;;;;9.43;2.70;;;13.40;93.50;;;;;;5020743;28;20204;-85
2022/11/16 13:48:57;;;;;;;6.10;2.33;;;13.40;93.60;;;;;;5026387;28;20207;-84
2022/11/16 13:51:30;;;;;;;8.70;2.23;;;13.50;94.10;;;;;;5037909;28;20169;-84
2022/11/16 13:53:56;;;;;;;10.17;2.50;;;13.60;92.80;;;;;;5045611;28;20260;-83
2022/11/16 13:56:24;;;;;;;7.80;2.60;;;13.70;91.90;;;;;;5033447;28;20173;-83
2022/11/16 13:59:00;;;;;;;12.00;3.73;;;13.90;90.40;;;;;;5051586;28;20186;-83
2022/11/16 14:02:00;;;;;;;8.77;3.30;;;13.90;88.50;;;;;;5033088;28;20623;-83
2022/11/16 14:05:05;;;;;;;11.57;3.13;;;14.10;88.10;;;;;;5052443;28;20197;-82
2022/11/16 14:07:45;;;;;;;9.97;3.77;;;14.20;86.80;;;;;;5028373;28;20170;-82
2022/11/16 14:10:35;;;;;;;10.23;4.00;;;14.20;85.10;;;;;;5036160;28;20189;-82
2022/11/16 14:13:39;;;;;;;8.93;4.03;;;14.30;83.70;;;;;;5035535;28;20247;-85
2022/11/16 14:16:40;;;;;;;8.20;3.40;;;14.40;82.70;;;;;;5052147;28;20224;-83
2022/11/16 14:19:48;;;;;;;8.57;3.23;;;14.50;80.40;;;;;;5028851;28;20198;-86
2022/11/16 14:22:55;;;;;;;9.83;3.37;;;14.50;77.90;;;;;;5050855;28;20177;-86
2022/11/16 14:25:59;;;;;;;7.47;2.77;;;14.60;76.40;;;;;;5033329;28;20248;-84
2022/11/16 14:28:50;;;;;;;8.00;2.50;;;14.30;73.00;;;;;;5053486;28;20243;-85
2022/11/16 14:31:48;;;;;;;4.53;2.20;;;14.10;74.70;;;;;;5065693;28;20186;-83
2022/11/16 14:34:49;;;;;;;5.90;2.40;;;14.00;77.90;;;;;;5036633;28;20183;-84
2022/11/16 14:37:33;;;;;;;6.60;2.60;;;14.00;78.20;;;;;;5039808;28;20165;-82
2022/11/16 14:40:27;;;;;;;10.23;3.43;;;14.10;78.50;;;;;;5056793;28;20185;-83
2022/11/16 14:43:20;;;;;;;5.50;2.63;;;14.10;78.10;;;;;;5023509;28;20207;-83
2022/11/16 14:46:00;;;;;;;8.50;2.80;;;14.20;76.70;;;;;;5038912;28;20221;-84
2022/11/16 14:48:27;;;;;;;7.97;3.27;;;14.30;75.30;;;;;;5037343;28;20180;-80
2022/11/16 14:51:18;;;;;;;8.13;3.03;;;14.20;74.60;;;;;;5039701;28;20161;-85
2022/11/16 14:53:52;;;;;;;11.13;4.73;;;14.20;77.60;;;;;;5055747;28;20229;-82
2022/11/16 14:56:18;;;;;;;10.90;5.03;;;14.10;77.50;;;;;;5040706;28;20266;-84
2022/11/16 14:58:52;;;;;;;12.03;4.57;;;14.20;77.70;;;;;;5056302;28;20162;-84
2022/11/16 15:01:21;;;;;;;11.77;3.87;;;14.40;76.60;;;;;;5040725;28;20242;-82
2022/11/16 15:04:05;;;;;;;7.57;2.80;;;14.30;75.60;;;;;;5040008;28;20228;-84
2022/11/16 15:07:00;;;;;;;8.13;3.43;;;14.10;77.00;;;;;;5036157;28;20200;-85
2022/11/16 15:10:01;;;;;;;8.60;3.30;;;14.20;77.40;;;;;;5036857;28;20170;-86
2022/11/16 15:12:51;;;;;;;7.30;3.17;;;14.10;77.50;;;;;;5015145;28;20184;-83
2022/11/16 15:15:25;;;;;;;8.50;3.20;;;14.20;77.10;;;;;;5051927;28;20273;-84
2022/11/16 15:18:31;;;;;;;7.00;3.50;;;14.20;76.50;;;;;;5033735;28;20182;-85
2022/11/16 15:20:56;;;;;;;8.23;3.10;;;14.00;77.70;;;;;;5031959;28;20189;-83
2022/11/16 15:23:22;;;;;;;6.90;2.90;;;14.20;77.80;;;;;;5037237;28;20162;-82
2022/11/16 15:25:56;;;;;;;7.90;3.27;;;13.90;77.50;;;;;;5038910;28;20237;-84
2022/11/16 15:28:30;;;;;;;11.90;2.87;;;13.80;77.70;;;;;;5041596;28;20208;-85
2022/11/16 15:30:59;;;;;;;12.07;3.53;;;14.00;77.40;;;;;;5029713;28;20177;-84
2022/11/16 15:33:40;;;;;;;8.27;3.40;;;13.90;75.70;;;;;;5030834;28;20216;-85
2022/11/16 15:36:31;;;;;;;9.27;3.70;;;13.90;75.90;;;;;;5033937;28;20170;-83
2022/11/16 15:39:00;;;;;;;7.73;3.90;;;14.00;76.20;;;;;;5032438;28;20156;-86
2022/11/16 15:41:28;;;;;;;8.40;4.30;;;13.90;78.20;;;;;;5045328;28;20185;-85
2022/11/16 15:43:57;;;;;;;8.03;4.03;;;13.70;80.40;;;;;;5019159;28;20201;-85
2022/11/16 15:46:30;;;;;;;12.50;3.60;;;13.50;82.90;;;;;;5000777;28;20205;-84
2022/11/16 15:48:57;;;;;;;7.23;3.10;;;13.60;84.50;;;;;;5016131;28;20193;-83
2022/11/16 15:51:32;;;;;;;8.77;3.17;;;13.40;84.40;;;;;;5018581;28;20254;-82
2022/11/16 15:54:27;;;;;;;9.57;4.03;;;13.20;86.90;;;;;;5018220;28;20177;-84
2022/11/16 15:57:03;;;;;;;7.57;3.70;;;13.30;88.10;;;;;;5016247;28;20178;-83
2022/11/16 15:59:33;;;;;;;9.13;3.67;;;13.20;88.40;;;;;;5039173;28;20229;-86
2022/11/16 16:02:02;;;;;;;6.93;3.03;;;13.10;89.80;;;;;;5046608;28;20185;-80
2022/11/16 16:04:28;;;;;;;7.03;3.17;;;13.20;88.40;;;;;;5039247;28;20219;-85
2022/11/16 16:06:56;;;;;;;6.67;3.40;;;13.10;87.40;;;;;;5037200;28;20183;-85
2022/11/16 16:09:32;;;;;;;7.13;3.20;;;13.20;86.50;;;;;;5039675;28;20170;-82
2022/11/16 16:12:18;;;;;;;7.93;3.10;;;13.20;86.20;;;;;;5018221;28;20177;-82
2022/11/16 16:15:41;;;;;;;6.10;2.90;;;13.10;87.10;;;;;;5033162;28;20269;-83
2022/11/16 16:18:39;;;;;;;7.70;2.73;;;13.10;88.50;;;;;;5014287;28;20178;-84
2022/11/16 16:21:10;;;;;;;5.43;2.17;;;13.20;88.10;;;;;;5042844;28;20174;-81
2022/11/16 16:23:50;;;;;;;9.33;3.20;;;13.20;87.60;;;;;;5043183;28;20187;-83
2022/11/16 16:26:17;;;;;;;6.40;2.50;;;13.10;89.60;;;;;;5037619;28;20171;-83
2022/11/16 16:28:43;;;;;;;9.70;3.43;;;13.10;90.40;;;;;;5032462;28;20173;-82
2022/11/16 16:31:10;;;;;;;7.30;3.30;;;13.10;91.20;;;;;;5026744;28;20263;-83
2022/11/16 16:33:43;;;;;;;8.10;3.37;;;13.00;91.90;;;;;;5008659;28;20188;-84
2022/11/16 16:36:12;;;;;;;11.33;2.50;;;13.00;92.60;;;;;;5005411;28;20202;-83
2022/11/16 16:38:41;;;;;;;8.37;2.60;;;12.80;93.90;;;;;;5023751;28;20258;-81
2022/11/16 16:41:15;;;;;;;7.57;3.33;;;12.90;94.10;;;;;;5011140;28;20198;-83
2022/11/16 16:43:41;;;;;;;8.03;3.17;;;12.80;95.70;;;;;;5010650;28;20185;-83
2022/11/16 16:46:09;;;;;;;10.07;3.50;;;12.80;95.60;;;;;;5023850;28;20677;-84
2022/11/16 16:48:35;;;;;;;10.10;3.30;;;12.90;95.10;;;;;;5039793;28;20209;-82
2022/11/16 16:51:12;;;;;;;8.10;3.83;;;12.90;94.90;;;;;;5024224;28;20179;-81
2022/11/16 16:53:48;;;;;;;12.63;4.83;;;12.80;95.70;;;;;;5034245;28;20184;-81
2022/11/16 16:56:15;;;;;;;17.67;6.90;;;12.80;96.50;;;;;;4999244;28;20262;-83
2022/11/16 16:58:44;;;;;;;9.50;4.87;;;12.80;97.10;;;;;;5046191;28;20160;-83
2022/11/16 17:01:10;;;;;;;11.27;5.90;;;12.80;97.10;;;;;;5036865;28;20187;-83
2022/11/16 17:03:52;;;;;;;12.07;6.27;;;13.00;96.50;;;;;;5033853;28;20178;-85
2022/11/16 17:06:19;;;;;;;9.13;5.00;;;12.90;96.40;;;;;;5040361;28;20190;-86
2022/11/16 17:08:46;;;;;;;12.03;4.20;;;12.90;96.50;;;;;;5026245;28;20170;-84
2022/11/16 17:11:15;;;;;;;9.67;4.43;;;12.70;97.50;;;;;;5043689;28;20187;-83
2022/11/16 17:13:41;;;;;;;11.73;4.57;;;12.80;97.70;;;;;;5043018;28;20158;-82
2022/11/16 17:16:09;;;;;;;8.20;4.00;;;12.90;97.00;;;;;;5031498;28;20204;-82
2022/11/16 17:18:36;;;;;;;8.90;3.63;;;12.80;97.30;;;;;;5045943;28;20654;-82
2022/11/16 17:21:14;;;;;;;9.07;3.83;;;12.70;97.70;;;;;;5023392;28;20182;-84
2022/11/16 17:23:40;;;;;;;8.50;3.53;;;12.70;98.30;;;;;;5042919;28;20171;-83
2022/11/16 17:26:09;;;;;;;8.47;3.50;;;12.80;97.80;;;;;;5045672;28;20203;-82